Time;durP1;ratioP1;P1;durP2;ratioP2;P2;SDS_P1;SDS_P2;PMS_P1;PMS_P2;Temp;Humidity;BMP_temperature;BMP_pressure;BME280_temperature;BME280_humidity;BME280_pressure;Samples;Min_cycle;Max_cycle;Signal;HPM_P1;HPM_P2
2022/06/08 00:00:17;;;;;;;12.48;8.73;;;10.20;99.90;;;;;;5042161;28;20044;-43
2022/06/08 00:02:48;;;;;;;14.63;9.32;;;10.10;99.90;;;;;;5042660;28;20051;-45
2022/06/08 00:05:15;;;;;;;10.98;9.63;;;10.10;99.90;;;;;;5008541;28;20056;-44
2022/06/08 00:07:40;;;;;;;12.23;10.50;;;10.10;99.90;;;;;;5008892;28;20099;-45
2022/06/08 00:10:07;;;;;;;10.77;9.73;;;10.10;99.90;;;;;;5027510;28;20148;-44
2022/06/08 00:12:34;;;;;;;11.07;9.02;;;10.10;99.90;;;;;;5043579;28;20056;-46
2022/06/08 00:14:59;;;;;;;11.85;9.27;;;10.10;99.90;;;;;;5041921;28;20474;-44
2022/06/08 00:17:26;;;;;;;13.30;10.15;;;10.10;99.90;;;;;;5020548;28;20053;-44
2022/06/08 00:19:52;;;;;;;9.82;8.30;;;10.00;99.90;;;;;;5041725;28;20174;-44
2022/06/08 00:22:18;;;;;;;10.48;8.57;;;10.00;99.90;;;;;;5024390;28;20462;-45
2022/06/08 00:24:44;;;;;;;11.13;8.88;;;10.00;99.90;;;;;;5021412;28;20667;-44
2022/06/08 00:27:15;;;;;;;9.95;8.93;;;10.00;99.90;;;;;;5041954;28;20045;-44
2022/06/08 00:29:41;;;;;;;11.18;9.10;;;10.00;99.90;;;;;;5023377;28;20088;-44
2022/06/08 00:32:08;;;;;;;12.65;8.40;;;9.90;99.90;;;;;;5040841;28;20136;-45
2022/06/08 00:34:35;;;;;;;11.48;9.48;;;9.90;99.90;;;;;;5041446;28;20131;-44
2022/06/08 00:37:01;;;;;;;13.55;8.63;;;9.90;99.90;;;;;;5021961;28;20448;-44
2022/06/08 00:39:26;;;;;;;15.35;8.55;;;10.00;99.90;;;;;;5041092;28;20049;-44
2022/06/08 00:42:00;;;;;;;13.80;9.52;;;9.90;99.90;;;;;;5041355;28;20439;-44
2022/06/08 00:44:31;;;;;;;12.23;9.40;;;9.90;99.90;;;;;;5023991;28;20117;-43
2022/06/08 00:47:02;;;;;;;13.40;9.40;;;9.90;99.90;;;;;;5041836;28;20052;-43
2022/06/08 00:49:48;;;;;;;12.60;9.65;;;10.00;99.90;;;;;;5020429;28;20523;-43
2022/06/08 00:52:14;;;;;;;13.75;11.25;;;10.00;99.90;;;;;;5016032;28;20045;-45
2022/06/08 00:54:50;;;;;;;17.88;11.23;;;10.10;99.90;;;;;;5042567;28;20059;-44
2022/06/08 00:57:24;;;;;;;14.25;10.25;;;10.20;99.90;;;;;;5041650;28;20044;-45
2022/06/08 01:00:16;;;;;;;14.45;10.55;;;10.20;99.90;;;;;;5022485;28;20135;-44
2022/06/08 01:02:42;;;;;;;14.15;10.57;;;10.30;99.90;;;;;;4924116;29;20065;-45
2022/06/08 01:05:20;;;;;;;14.15;11.30;;;10.40;99.90;;;;;;4940298;29;20055;-43
2022/06/08 01:07:47;;;;;;;13.52;10.88;;;10.40;99.90;;;;;;4940430;29;20562;-45
2022/06/08 01:10:20;;;;;;;19.00;12.35;;;10.40;99.90;;;;;;4939953;29;20047;-44
2022/06/08 01:12:46;;;;;;;;;;;10.50;99.90;;;;;;4940295;29;20429;-44
2022/06/08 01:15:15;;;;;;;16.50;12.23;;;10.50;99.90;;;;;;4922661;29;19931;-44
2022/06/08 01:17:46;;;;;;;15.63;11.82;;;10.60;99.90;;;;;;4940551;29;20063;-44
2022/06/08 01:20:12;;;;;;;20.00;13.05;;;10.60;99.90;;;;;;4939558;28;20126;-44
2022/06/08 01:22:39;;;;;;;18.15;14.85;;;10.70;99.90;;;;;;4928662;29;20275;-44
2022/06/08 01:25:07;;;;;;;18.33;15.80;;;10.70;99.90;;;;;;4931035;29;20117;-46
2022/06/08 01:27:40;;;;;;;20.60;16.52;;;10.70;99.90;;;;;;4945900;29;20071;-44
2022/06/08 01:30:22;;;;;;;21.48;16.30;;;10.80;99.90;;;;;;4943784;29;20135;-50
2022/06/08 01:33:13;;;;;;;16.60;14.10;;;10.70;99.90;;;;;;4940628;29;20090;-44
2022/06/08 01:35:50;;;;;;;19.30;16.45;;;10.60;99.90;;;;;;4940831;29;20566;-44
2022/06/08 01:39:00;;;;;;;19.58;16.05;;;10.60;99.90;;;;;;4943136;29;20661;-44
2022/06/08 01:41:50;;;;;;;22.52;17.65;;;10.60;99.90;;;;;;5018870;28;20500;-44
2022/06/08 01:44:28;;;;;;;20.90;15.57;;;10.50;99.90;;;;;;5021055;28;20061;-43
2022/06/08 01:47:24;;;;;;;20.83;16.60;;;10.50;99.90;;;;;;5045016;28;20041;-44
2022/06/08 01:50:07;;;;;;;22.50;17.05;;;10.40;99.90;;;;;;5025741;28;20534;-45
2022/06/08 01:52:45;;;;;;;23.20;17.23;;;10.40;99.90;;;;;;5042833;28;20059;-44
2022/06/08 01:55:43;;;;;;;18.80;16.38;;;10.40;99.90;;;;;;5023876;28;20051;-45
2022/06/08 01:58:15;;;;;;;21.50;16.83;;;10.40;99.90;;;;;;5025357;28;20397;-45
2022/06/08 02:00:49;;;;;;;19.95;16.60;;;10.40;99.90;;;;;;5044375;28;20052;-44
2022/06/08 02:03:19;;;;;;;21.58;16.70;;;10.40;99.90;;;;;;5023169;28;20056;-45
2022/06/08 02:06:11;;;;;;;19.80;15.77;;;10.50;99.90;;;;;;5041727;28;20420;-43
2022/06/08 02:08:56;;;;;;;17.75;15.75;;;10.50;99.90;;;;;;5044073;28;20508;-44
2022/06/08 02:11:41;;;;;;;20.77;17.40;;;10.50;99.90;;;;;;5024950;28;20057;-44
2022/06/08 02:14:50;;;;;;;22.15;18.10;;;10.50;99.90;;;;;;5023942;28;20366;-43
2022/06/08 02:17:54;;;;;;;22.08;17.35;;;10.50;99.90;;;;;;5001396;28;20065;-46
2022/06/08 02:20:46;;;;;;;19.13;16.05;;;10.40;99.90;;;;;;4989720;28;20591;-45
2022/06/08 02:23:21;;;;;;;21.00;17.23;;;10.40;99.90;;;;;;4988762;28;20676;-43
2022/06/08 02:26:12;;;;;;;21.38;17.85;;;10.40;99.90;;;;;;4985852;28;20050;-46
2022/06/08 02:28:44;;;;;;;22.90;17.70;;;10.30;99.90;;;;;;4981956;28;20125;-44
2022/06/08 02:31:16;;;;;;;20.23;17.00;;;10.30;99.90;;;;;;4978313;28;20062;-44
2022/06/08 02:36:37;;;;;;;18.73;16.63;;;10.20;99.90;;;;;;4983038;28;20317;-45
2022/06/08 02:39:10;;;;;;;18.85;16.85;;;10.20;99.90;;;;;;4971581;28;20062;-44
2022/06/08 02:41:41;;;;;;;21.38;18.17;;;10.20;99.90;;;;;;4984836;28;20094;-46
2022/06/08 02:44:14;;;;;;;21.45;17.67;;;10.20;99.90;;;;;;4981912;28;20797;-46
2022/06/08 02:46:50;;;;;;;18.88;16.20;;;10.20;99.90;;;;;;4979258;28;20053;-46
2022/06/08 02:49:17;;;;;;;21.83;17.27;;;10.20;99.90;;;;;;4969264;28;20046;-44
2022/06/08 02:51:47;;;;;;;20.40;17.13;;;10.20;99.90;;;;;;4980362;28;20541;-45
2022/06/08 02:54:18;;;;;;;21.05;17.98;;;10.10;99.90;;;;;;5002275;28;20508;-45
2022/06/08 02:57:01;;;;;;;22.58;18.73;;;10.10;99.90;;;;;;5043838;28;20064;-45
2022/06/08 02:59:36;;;;;;;;;;;10.10;99.90;;;;;;5042636;28;20785;-45
2022/06/08 03:02:13;;;;;;;24.25;18.40;;;10.20;99.90;;;;;;5042777;28;20508;-43
2022/06/08 03:04:45;;;;;;;25.73;18.55;;;10.20;99.90;;;;;;5043561;28;20103;-44
2022/06/08 03:07:16;;;;;;;20.95;18.67;;;10.20;99.90;;;;;;5042708;28;20084;-44
2022/06/08 03:09:44;;;;;;;20.10;17.52;;;10.20;99.90;;;;;;5024586;28;20061;-43
2022/06/08 03:12:35;;;;;;;21.42;18.95;;;10.20;99.90;;;;;;5042635;28;20041;-43
2022/06/08 03:15:03;;;;;;;24.00;19.75;;;10.30;99.90;;;;;;5041635;28;20686;-43
2022/06/08 03:17:33;;;;;;;22.50;19.02;;;10.30;99.90;;;;;;5041473;28;20134;-45
2022/06/08 03:20:00;;;;;;;21.05;18.25;;;10.40;99.90;;;;;;5043210;28;20127;-45
2022/06/08 03:22:28;;;;;;;27.27;19.85;;;10.40;99.90;;;;;;5042298;28;20055;-44
2022/06/08 03:24:54;;;;;;;23.70;19.92;;;10.50;99.90;;;;;;5036081;28;20044;-45
2022/06/08 03:27:20;;;;;;;23.15;20.55;;;10.60;99.90;;;;;;5042194;28;20410;-44
2022/06/08 03:29:46;;;;;;;23.33;20.75;;;10.80;99.90;;;;;;5041735;28;20052;-44
2022/06/08 03:32:12;;;;;;;26.23;21.88;;;10.80;99.90;;;;;;5041587;28;20074;-45
2022/06/08 03:34:38;;;;;;;28.17;22.05;;;10.90;99.90;;;;;;5042524;28;20045;-43
2022/06/08 03:37:05;;;;;;;25.42;22.58;;;11.10;99.90;;;;;;5024022;28;20163;-43
2022/06/08 03:39:31;;;;;;;29.30;23.50;;;11.30;99.90;;;;;;5034597;28;20067;-43
2022/06/08 03:41:56;;;;;;;29.30;23.77;;;11.40;99.90;;;;;;5042240;28;20500;-44
2022/06/08 03:44:22;;;;;;;25.23;22.58;;;11.50;99.90;;;;;;5041624;28;20052;-44
2022/06/08 03:46:53;;;;;;;27.95;22.95;;;11.60;99.90;;;;;;5042060;28;20049;-44
2022/06/08 03:49:20;;;;;;;25.67;21.40;;;11.80;99.90;;;;;;5041925;28;20052;-44
2022/06/08 03:51:52;;;;;;;24.05;21.45;;;11.80;99.90;;;;;;5042362;28;20124;-46
2022/06/08 03:54:22;;;;;;;24.50;21.83;;;11.90;99.90;;;;;;5043221;28;20063;-45
2022/06/08 03:56:52;;;;;;;25.38;21.27;;;11.90;99.90;;;;;;5043888;28;20048;-44
2022/06/08 03:59:18;;;;;;;24.83;22.25;;;12.00;99.90;;;;;;5045258;28;20053;-44
2022/06/08 04:01:45;;;;;;;28.65;23.00;;;12.00;99.90;;;;;;5024731;28;20155;-47
2022/06/08 04:04:11;;;;;;;26.38;22.58;;;12.00;99.90;;;;;;5041191;28;20045;-44
2022/06/08 04:06:37;;;;;;;29.80;22.77;;;12.00;99.90;;;;;;5041750;28;20412;-46
2022/06/08 04:09:04;;;;;;;29.02;23.38;;;12.00;99.90;;;;;;5041601;28;20087;-43
2022/06/08 04:11:30;;;;;;;26.02;22.40;;;12.00;99.90;;;;;;5023911;28;20071;-44
2022/06/08 04:13:56;;;;;;;29.27;23.63;;;12.00;99.90;;;;;;5040881;28;20076;-44
2022/06/08 04:16:22;;;;;;;28.73;22.75;;;12.00;99.90;;;;;;5041117;28;20206;-43
2022/06/08 04:18:48;;;;;;;32.03;24.85;;;12.10;99.90;;;;;;5041317;28;20154;-45
2022/06/08 04:21:15;;;;;;;27.02;23.02;;;12.10;99.90;;;;;;5039921;28;20681;-44
2022/06/08 04:23:42;;;;;;;33.53;26.20;;;12.10;99.90;;;;;;5041098;28;20500;-44
2022/06/08 04:26:09;;;;;;;33.08;25.10;;;12.10;99.90;;;;;;5041256;28;20044;-44
2022/06/08 04:28:35;;;;;;;31.33;25.27;;;12.20;99.90;;;;;;5040931;28;20144;-43
2022/06/08 04:31:04;;;;;;;30.90;25.33;;;12.20;99.90;;;;;;5018696;28;20572;-45
2022/06/08 04:33:30;;;;;;;33.53;26.33;;;12.30;99.90;;;;;;5021824;28;20049;-43
2022/06/08 04:35:59;;;;;;;30.77;26.45;;;12.40;99.90;;;;;;5040132;28;20049;-43
2022/06/08 04:38:25;;;;;;;34.05;26.40;;;12.40;99.90;;;;;;5022149;28;20463;-45
2022/06/08 04:40:51;;;;;;;31.15;25.10;;;12.40;99.90;;;;;;5040687;28;20675;-45
2022/06/08 04:43:18;;;;;;;38.17;26.67;;;12.50;99.90;;;;;;5041371;28;20492;-46
2022/06/08 04:45:44;;;;;;;34.35;27.27;;;12.60;99.90;;;;;;5041248;28;20067;-44
2022/06/08 04:48:11;;;;;;;33.75;25.27;;;12.60;99.90;;;;;;5020177;28;20507;-44
2022/06/08 04:50:46;;;;;;;35.33;26.42;;;12.70;99.90;;;;;;5040817;28;20048;-44
2022/06/08 04:53:12;;;;;;;37.60;27.17;;;12.70;99.90;;;;;;5021432;28;20084;-44
2022/06/08 04:55:38;;;;;;;32.65;26.27;;;12.80;99.90;;;;;;5039941;28;20152;-44
2022/06/08 04:58:03;;;;;;;31.02;27.02;;;12.80;99.90;;;;;;5040779;28;20497;-44
2022/06/08 05:00:30;;;;;;;35.67;26.70;;;12.90;99.90;;;;;;5041180;28;20052;-44
2022/06/08 05:02:59;;;;;;;34.22;25.60;;;12.90;99.90;;;;;;5021675;28;20053;-44
2022/06/08 05:05:26;;;;;;;27.52;23.88;;;13.00;99.90;;;;;;5040717;28;20048;-44
2022/06/08 05:07:53;;;;;;;29.83;24.98;;;13.10;99.90;;;;;;5040851;28;20053;-44
2022/06/08 05:10:21;;;;;;;33.22;25.02;;;13.20;99.90;;;;;;5040229;28;20131;-45
2022/06/08 05:12:47;;;;;;;36.05;26.23;;;13.20;99.90;;;;;;5042152;28;20170;-45
2022/06/08 05:15:28;;;;;;;31.80;24.80;;;13.20;99.90;;;;;;5026911;28;20581;-50
2022/06/08 05:17:54;;;;;;;31.60;24.55;;;13.30;99.90;;;;;;5040958;28;20133;-51
2022/06/08 05:20:21;;;;;;;29.98;24.88;;;13.30;99.90;;;;;;5040819;28;20452;-44
2022/06/08 05:22:50;;;;;;;29.80;24.67;;;13.40;99.90;;;;;;5041228;28;20098;-44
2022/06/08 05:25:33;;;;;;;28.85;23.55;;;13.60;99.90;;;;;;5041012;28;20148;-44
2022/06/08 05:27:59;;;;;;;29.60;23.63;;;13.70;99.90;;;;;;5040449;28;20587;-44
2022/06/08 05:30:26;;;;;;;29.02;25.42;;;14.00;99.90;;;;;;5040334;28;20524;-45
2022/06/08 05:32:53;;;;;;;24.23;21.67;;;15.40;99.90;;;;;;5040223;28;20744;-45
2022/06/08 05:35:22;;;;;;;22.20;19.77;;;17.20;99.90;;;;;;5041452;28;20067;-46
2022/06/08 05:37:48;;;;;;;20.40;18.23;;;18.30;99.90;;;;;;5040702;28;20223;-44
2022/06/08 05:40:14;;;;;;;21.38;18.65;;;18.30;99.90;;;;;;5021284;28;20046;-44
2022/06/08 05:42:39;;;;;;;22.10;19.23;;;18.00;99.90;;;;;;5021842;28;20053;-44
2022/06/08 05:45:11;;;;;;;20.90;18.67;;;17.30;99.90;;;;;;5040333;28;20045;-46
2022/06/08 05:47:37;;;;;;;21.55;19.23;;;16.70;99.90;;;;;;5020738;28;20049;-45
2022/06/08 05:50:03;;;;;;;21.42;19.17;;;16.30;99.90;;;;;;5040553;28;20161;-46
2022/06/08 05:52:29;;;;;;;23.92;20.10;;;15.90;99.90;;;;;;5040020;28;20456;-45
2022/06/08 05:54:55;;;;;;;21.92;19.55;;;15.50;99.90;;;;;;5022313;28;20048;-44
2022/06/08 05:57:26;;;;;;;23.10;20.23;;;15.30;99.90;;;;;;5022425;28;20056;-44
2022/06/08 05:59:52;;;;;;;23.25;20.30;;;15.30;99.90;;;;;;5037718;28;20115;-45
2022/06/08 06:02:18;;;;;;;26.30;21.17;;;15.20;99.90;;;;;;5040260;28;20163;-45
2022/06/08 06:04:44;;;;;;;24.70;21.02;;;15.20;99.90;;;;;;5040633;28;20048;-44
2022/06/08 06:07:12;;;;;;;21.75;19.50;;;15.10;99.90;;;;;;5041781;28;20128;-45
2022/06/08 06:09:39;;;;;;;26.55;20.20;;;15.20;99.90;;;;;;5043704;28;20052;-44
2022/06/08 06:12:09;;;;;;;22.85;20.42;;;15.20;99.90;;;;;;5025355;28;20048;-44
2022/06/08 06:14:35;;;;;;;22.95;19.95;;;15.20;99.90;;;;;;5042926;28;20044;-48
2022/06/08 06:17:02;;;;;;;22.40;19.52;;;15.20;99.90;;;;;;5044491;28;20053;-45
2022/06/08 06:19:27;;;;;;;21.98;18.88;;;15.20;99.90;;;;;;5044688;28;20396;-46
2022/06/08 06:22:04;;;;;;;21.77;19.48;;;15.20;99.90;;;;;;5044264;28;20280;-44
2022/06/08 06:24:31;;;;;;;22.98;20.00;;;15.20;99.90;;;;;;5043753;28;20053;-45
2022/06/08 06:26:57;;;;;;;22.45;19.77;;;15.30;99.90;;;;;;5045562;28;20567;-44
2022/06/08 06:29:26;;;;;;;22.40;20.15;;;15.40;99.90;;;;;;5047067;28;20087;-46
2022/06/08 06:31:58;;;;;;;23.20;20.08;;;15.60;99.90;;;;;;5043327;28;20115;-45
2022/06/08 06:34:29;;;;;;;22.90;19.00;;;15.60;99.90;;;;;;5043812;28;20151;-47
2022/06/08 06:36:58;;;;;;;24.63;20.15;;;15.70;99.90;;;;;;5043667;28;20816;-45
2022/06/08 06:39:29;;;;;;;23.08;19.30;;;15.70;99.90;;;;;;5036810;28;20736;-44
2022/06/08 06:41:58;;;;;;;22.83;19.77;;;15.90;99.90;;;;;;5043096;28;20045;-47
2022/06/08 06:44:24;;;;;;;23.17;20.17;;;16.00;99.90;;;;;;5043210;28;20080;-45
2022/06/08 06:46:50;;;;;;;20.92;18.08;;;16.20;99.90;;;;;;5008251;28;20106;-46
2022/06/08 06:49:16;;;;;;;22.38;19.67;;;16.30;99.90;;;;;;5042684;28;20041;-45
2022/06/08 06:51:42;;;;;;;20.25;18.13;;;16.40;99.90;;;;;;5043118;28;20135;-44
2022/06/08 06:54:10;;;;;;;20.50;17.15;;;16.40;99.90;;;;;;5042656;28;20451;-44
2022/06/08 06:56:36;;;;;;;21.15;17.65;;;16.50;99.90;;;;;;5021638;28;20049;-44
2022/06/08 06:59:03;;;;;;;18.15;16.05;;;16.60;99.90;;;;;;5021552;28;20055;-44
2022/06/08 07:01:29;;;;;;;15.07;13.48;;;16.70;99.90;;;;;;5043378;28;20041;-45
2022/06/08 07:03:54;;;;;;;14.80;12.55;;;16.70;99.90;;;;;;5024308;28;20515;-45
2022/06/08 07:06:20;;;;;;;14.55;12.70;;;16.80;99.90;;;;;;5042771;28;20053;-44
2022/06/08 07:08:47;;;;;;;14.10;12.63;;;16.90;99.90;;;;;;5043144;28;20127;-47
2022/06/08 07:13:57;;;;;;;15.05;11.35;;;17.00;99.90;;;;;;5042883;28;20060;-45
2022/06/08 07:16:26;;;;;;;13.95;11.35;;;16.90;99.90;;;;;;5041986;28;20383;-44
2022/06/08 07:18:52;;;;;;;13.32;11.93;;;16.90;99.90;;;;;;5023374;28;20323;-44
2022/06/08 07:21:18;;;;;;;11.05;9.52;;;16.90;99.90;;;;;;5023325;28;20048;-45
2022/06/08 07:23:45;;;;;;;11.38;10.30;;;17.00;99.90;;;;;;5041830;28;20040;-44
2022/06/08 07:26:11;;;;;;;10.73;9.50;;;17.10;99.90;;;;;;5042398;28;20048;-45
2022/06/08 07:28:38;;;;;;;12.05;10.43;;;17.20;99.90;;;;;;5041393;28;20067;-45
2022/06/08 07:31:04;;;;;;;11.48;10.10;;;17.30;99.90;;;;;;5024341;28;20076;-46
2022/06/08 07:33:33;;;;;;;11.43;10.23;;;17.30;99.90;;;;;;5042896;28;20053;-45
2022/06/08 07:36:03;;;;;;;11.32;10.23;;;17.50;99.90;;;;;;5041443;28;20118;-46
2022/06/08 07:38:29;;;;;;;13.73;11.30;;;17.70;99.90;;;;;;5038877;28;20053;-45
2022/06/08 07:40:55;;;;;;;11.95;10.55;;;17.80;99.90;;;;;;5017058;28;20530;-45
2022/06/08 07:43:21;;;;;;;12.20;10.93;;;18.00;99.90;;;;;;5017954;28;20053;-47
2022/06/08 07:45:47;;;;;;;13.90;10.77;;;18.20;99.90;;;;;;5014988;28;20046;-47
2022/06/08 07:50:57;;;;;;;11.82;10.43;;;18.50;99.90;;;;;;5042361;28;20098;-47
2022/06/08 07:53:23;;;;;;;12.32;9.85;;;18.60;99.90;;;;;;5041085;28;20057;-46
2022/06/08 07:55:49;;;;;;;10.77;9.57;;;18.70;99.90;;;;;;5042133;28;20455;-46
2022/06/08 07:58:15;;;;;;;11.82;9.40;;;18.80;99.90;;;;;;5042172;28;20431;-45
2022/06/08 08:00:43;;;;;;;11.55;8.35;;;19.20;99.90;;;;;;5043173;28;20400;-45
2022/06/08 08:03:10;;;;;;;8.88;7.80;;;19.50;99.90;;;;;;5007842;28;20142;-47
2022/06/08 08:05:36;;;;;;;7.85;7.03;;;19.40;99.90;;;;;;5041826;28;20128;-46
2022/06/08 08:08:02;;;;;;;8.07;5.93;;;19.50;99.90;;;;;;5039267;28;20052;-48
2022/06/08 08:10:33;;;;;;;8.90;6.43;;;19.80;99.90;;;;;;5040369;28;20507;-45
2022/06/08 08:12:59;;;;;;;8.43;6.50;;;19.90;99.90;;;;;;5042386;28;20044;-47
2022/06/08 08:15:27;;;;;;;7.82;6.88;;;20.20;99.90;;;;;;5040341;28;20349;-45
2022/06/08 08:17:53;;;;;;;8.50;6.97;;;20.20;99.90;;;;;;5040683;28;20079;-46
2022/06/08 08:20:20;;;;;;;7.50;6.63;;;20.50;99.90;;;;;;5006427;28;20500;-47
2022/06/08 08:22:46;;;;;;;8.82;6.60;;;20.40;99.90;;;;;;5041553;28;20128;-46
2022/06/08 08:25:15;;;;;;;9.30;6.65;;;20.40;99.90;;;;;;5041077;28;20049;-46
2022/06/08 08:27:42;;;;;;;11.07;7.03;;;20.40;99.90;;;;;;5040557;28;20134;-46
2022/06/08 08:30:10;;;;;;;6.70;6.00;;;20.50;99.90;;;;;;5040889;28;20083;-46
2022/06/08 08:32:36;;;;;;;8.95;5.80;;;20.70;99.90;;;;;;5020142;28;20591;-45
2022/06/08 08:35:03;;;;;;;6.30;5.30;;;20.80;99.90;;;;;;5021739;28;20060;-50
2022/06/08 08:37:30;;;;;;;17.88;6.80;;;21.00;99.90;;;;;;5040767;28;20129;-45
2022/06/08 08:39:57;;;;;;;7.93;5.75;;;20.90;99.90;;;;;;5019216;28;20077;-45
2022/06/08 08:42:24;;;;;;;6.10;5.50;;;20.90;99.90;;;;;;5039265;28;20135;-46
2022/06/08 08:44:54;;;;;;;5.20;4.53;;;21.00;99.90;;;;;;5019970;28;20509;-47
2022/06/08 08:47:35;;;;;;;4.90;3.90;;;21.00;99.90;;;;;;5034148;28;20049;-44
2022/06/08 08:50:22;;;;;;;4.97;4.47;;;20.80;99.90;;;;;;5017702;28;20132;-45
2022/06/08 08:53:07;;;;;;;5.80;4.30;;;20.80;99.90;;;;;;5042160;28;20048;-46
2022/06/08 08:55:42;;;;;;;6.68;4.03;;;21.30;99.90;;;;;;5044456;28;20136;-45
2022/06/08 08:58:19;;;;;;;9.13;5.03;;;21.50;99.90;;;;;;5042501;28;20044;-47
2022/06/08 09:00:49;;;;;;;8.55;4.90;;;21.30;99.90;;;;;;5040930;28;20110;-48
2022/06/08 09:03:26;;;;;;;5.05;4.55;;;21.10;99.90;;;;;;5041389;28;20091;-45
2022/06/08 09:05:56;;;;;;;5.22;4.72;;;20.90;99.90;;;;;;5041040;28;20040;-45
2022/06/08 09:08:23;;;;;;;5.28;4.78;;;20.80;99.90;;;;;;5033239;28;20052;-45
2022/06/08 09:10:50;;;;;;;5.43;4.93;;;20.80;99.90;;;;;;5022523;28;20053;-47
2022/06/08 09:13:22;;;;;;;6.53;4.55;;;20.80;99.90;;;;;;5039998;28;20087;-46
2022/06/08 09:15:54;;;;;;;6.20;4.70;;;20.70;99.90;;;;;;5019982;28;20045;-46
2022/06/08 09:18:39;;;;;;;7.95;4.05;;;20.60;99.90;;;;;;5019717;28;20057;-47
2022/06/08 09:21:29;;;;;;;7.30;3.85;;;20.60;99.90;;;;;;5021147;28;20604;-46
2022/06/08 09:24:07;;;;;;;7.00;4.07;;;20.70;99.90;;;;;;5004363;28;20053;-45
2022/06/08 09:26:36;;;;;;;7.43;4.55;;;20.90;99.90;;;;;;5022188;28;20118;-46
2022/06/08 09:29:02;;;;;;;6.13;5.07;;;21.20;99.90;;;;;;5003768;28;20512;-46
2022/06/08 09:31:33;;;;;;;6.85;5.78;;;21.20;99.90;;;;;;5019498;28;20144;-46
2022/06/08 09:34:06;;;;;;;7.70;5.20;;;21.50;99.90;;;;;;5002998;28;20054;-45
2022/06/08 09:36:33;;;;;;;7.15;5.35;;;21.50;99.90;;;;;;5021033;28;20527;-45
2022/06/08 09:38:59;;;;;;;6.10;5.47;;;21.80;99.90;;;;;;5020564;28;20156;-45
2022/06/08 09:41:34;;;;;;;6.30;5.70;;;22.00;99.90;;;;;;5020301;28;20124;-45
2022/06/08 09:44:12;;;;;;;8.93;6.60;;;22.20;99.90;;;;;;5024755;28;20041;-45
2022/06/08 09:53:03;;;;;;;6.90;5.30;;;22.10;99.90;;;;;;5036303;28;20400;-45
2022/06/08 09:55:31;;;;;;;6.72;5.57;;;22.00;99.90;;;;;;5038374;28;20052;-48
2022/06/08 09:58:05;;;;;;;6.88;5.70;;;21.90;99.90;;;;;;5044415;28;20051;-45
2022/06/08 10:00:50;;;;;;;7.90;5.68;;;21.70;99.90;;;;;;5044037;28;20053;-44
2022/06/08 10:03:37;;;;;;;6.57;5.93;;;21.70;99.90;;;;;;5044175;28;20049;-46
2022/06/08 10:06:19;;;;;;;6.72;5.15;;;21.80;99.90;;;;;;5044596;28;20060;-45
2022/06/08 10:08:51;;;;;;;8.02;6.88;;;21.80;99.90;;;;;;5044144;28;20053;-45
2022/06/08 10:11:39;;;;;;;6.13;5.53;;;21.60;99.90;;;;;;5044691;28;20508;-46
2022/06/08 10:15:02;;;;;;;6.82;6.22;;;21.20;99.90;;;;;;5048345;28;20095;-46
2022/06/08 10:17:37;;;;;;;9.13;7.55;;;20.80;99.90;;;;;;4943999;29;20061;-49
2022/06/08 10:20:18;;;;;;;11.82;9.20;;;20.10;99.90;;;;;;4942507;29;20066;-47
2022/06/08 10:22:47;;;;;;;15.68;10.95;;;19.10;99.90;;;;;;4942947;29;20687;-45
2022/06/08 10:25:13;;;;;;;14.85;10.50;;;18.60;99.90;;;;;;4942711;29;20051;-45
2022/06/08 10:27:51;;;;;;;12.27;11.00;;;18.10;99.90;;;;;;4943266;29;20055;-44
2022/06/08 10:30:31;;;;;;;15.60;12.73;;;17.90;99.90;;;;;;4942162;29;20066;-46
2022/06/08 10:33:25;;;;;;;13.50;12.13;;;17.70;99.90;;;;;;4942684;29;20207;-45
2022/06/08 10:35:55;;;;;;;13.00;11.05;;;17.70;99.90;;;;;;4939994;29;20067;-46
2022/06/08 10:38:24;;;;;;;11.80;10.60;;;17.70;99.90;;;;;;4926290;29;20155;-45
2022/06/08 10:41:01;;;;;;;12.10;10.07;;;17.70;99.90;;;;;;4918689;29;20062;-47
2022/06/08 10:43:30;;;;;;;10.63;9.52;;;17.80;99.90;;;;;;4926676;29;20545;-46
2022/06/08 10:46:02;;;;;;;11.27;10.05;;;17.80;99.90;;;;;;4942504;29;20062;-45
2022/06/08 10:48:46;;;;;;;15.88;11.25;;;17.90;99.90;;;;;;4997174;28;20315;-47
2022/06/08 10:51:16;;;;;;;13.95;12.18;;;17.90;99.90;;;;;;5007802;28;20060;-46
2022/06/08 10:56:32;;;;;;;13.82;11.82;;;17.80;99.90;;;;;;5042532;28;20087;-44
2022/06/08 10:59:18;;;;;;;12.75;11.48;;;17.80;99.90;;;;;;5025069;28;20053;-45
2022/06/08 11:01:53;;;;;;;13.95;12.50;;;17.80;99.90;;;;;;5024687;28;20103;-45
2022/06/08 11:04:31;;;;;;;12.88;10.98;;;17.90;99.90;;;;;;5043702;28;20529;-45
2022/06/08 11:07:01;;;;;;;15.82;13.13;;;17.80;99.90;;;;;;5042615;28;20138;-45
2022/06/08 11:09:33;;;;;;;14.38;12.27;;;17.90;99.90;;;;;;5043116;28;20063;-45
2022/06/08 11:12:11;;;;;;;13.27;11.77;;;17.90;99.90;;;;;;5024533;28;20091;-47
2022/06/08 11:14:43;;;;;;;13.25;11.95;;;17.90;99.90;;;;;;5023083;28;20504;-44
2022/06/08 11:17:35;;;;;;;13.48;12.18;;;18.00;99.90;;;;;;5041972;28;20045;-45
2022/06/08 11:20:03;;;;;;;12.35;11.02;;;18.10;99.90;;;;;;5025515;28;20048;-45
2022/06/08 11:22:55;;;;;;;13.02;11.63;;;18.20;99.90;;;;;;5043656;28;20099;-46
2022/06/08 11:25:45;;;;;;;13.93;11.93;;;18.40;99.90;;;;;;4941982;29;20499;-46
2022/06/08 11:28:36;;;;;;;20.85;16.75;;;18.80;99.90;;;;;;4942926;29;20043;-46
2022/06/08 11:31:07;;;;;;;15.90;14.30;;;19.20;99.90;;;;;;4945191;28;20051;-46
2022/06/08 11:34:17;;;;;;;14.88;12.48;;;19.60;99.90;;;;;;4943843;29;20471;-48
2022/06/08 11:36:47;;;;;;;15.13;10.27;;;19.90;99.90;;;;;;4942261;29;20073;-46
2022/06/08 11:39:53;;;;;;;9.10;6.50;;;20.10;99.90;;;;;;4942264;29;20062;-45
2022/06/08 11:42:33;;;;;;;9.63;5.97;;;19.90;99.90;;;;;;4940606;29;20137;-45
2022/06/08 11:45:19;;;;;;;9.63;6.53;;;19.70;99.90;;;;;;4941618;29;20187;-48
2022/06/08 11:48:02;;;;;;;11.35;7.57;;;19.70;99.90;;;;;;4923503;29;20055;-45
2022/06/08 11:50:42;;;;;;;11.07;7.20;;;19.70;99.90;;;;;;4940983;29;20100;-45
2022/06/08 11:53:24;;;;;;;9.45;6.75;;;19.70;99.90;;;;;;4941699;29;20581;-46
2022/06/08 11:56:24;;;;;;;9.80;7.80;;;19.80;99.90;;;;;;4941549;29;20598;-45
2022/06/08 11:58:57;;;;;;;10.85;7.60;;;19.70;99.90;;;;;;4940427;29;20596;-46
2022/06/08 12:01:26;;;;;;;10.35;7.53;;;19.50;99.90;;;;;;4949748;28;20055;-45
2022/06/08 12:04:00;;;;;;;9.68;7.80;;;19.50;99.90;;;;;;5024344;28;20107;-45
2022/06/08 12:06:33;;;;;;;12.88;8.68;;;19.20;99.90;;;;;;5024112;28;20053;-45
2022/06/08 12:09:05;;;;;;;11.45;8.20;;;19.10;99.90;;;;;;5041505;28;20045;-45
2022/06/08 12:11:33;;;;;;;12.73;9.05;;;18.90;99.90;;;;;;5020154;28;20053;-45
2022/06/08 12:14:23;;;;;;;11.20;8.80;;;18.80;99.90;;;;;;5039446;28;20160;-46
2022/06/08 12:17:03;;;;;;;14.18;8.52;;;18.80;99.90;;;;;;5041508;28;20056;-47
2022/06/08 12:19:44;;;;;;;10.07;7.60;;;18.60;99.90;;;;;;5042612;28;20098;-45
2022/06/08 12:22:21;;;;;;;11.20;7.78;;;18.60;99.90;;;;;;5006999;28;20114;-46
2022/06/08 12:25:25;;;;;;;12.63;8.02;;;18.50;99.90;;;;;;5021498;28;20083;-44
2022/06/08 12:27:53;;;;;;;;;;;18.50;99.90;;;;;;5042003;28;20052;-45
2022/06/08 12:30:19;;;;;;;11.88;10.25;;;18.20;99.90;;;;;;5041096;28;19929;-48
2022/06/08 12:33:21;;;;;;;22.35;9.95;;;17.90;99.90;;;;;;5040659;28;20060;-44
2022/06/08 12:35:56;;;;;;;12.80;11.55;;;17.60;99.90;;;;;;5040657;28;20071;-44
2022/06/08 12:38:30;;;;;;;15.48;14.07;;;17.40;99.90;;;;;;5041857;28;20067;-46
2022/06/08 12:41:05;;;;;;;17.67;16.13;;;17.10;99.90;;;;;;5020758;28;20172;-45
2022/06/08 12:43:52;;;;;;;19.60;17.88;;;17.10;99.90;;;;;;5042343;28;20055;-45
2022/06/08 12:46:22;;;;;;;20.75;18.58;;;17.00;99.90;;;;;;5043018;28;20053;-46
2022/06/08 12:48:55;;;;;;;22.40;20.52;;;17.00;99.90;;;;;;5043950;28;20559;-46
2022/06/08 12:51:29;;;;;;;21.85;19.83;;;17.10;99.90;;;;;;5042587;28;20091;-48
2022/06/08 12:53:56;;;;;;;24.75;22.40;;;17.10;99.90;;;;;;5035185;28;20523;-46
2022/06/08 12:56:22;;;;;;;22.42;20.23;;;17.10;99.90;;;;;;5041612;28;20053;-44
2022/06/08 12:58:52;;;;;;;22.77;20.85;;;17.20;99.90;;;;;;5041243;28;20130;-45
2022/06/08 13:01:23;;;;;;;21.25;19.15;;;17.20;99.90;;;;;;5021367;28;20065;-45
2022/06/08 13:03:50;;;;;;;20.20;18.15;;;17.20;99.90;;;;;;5041589;28;20052;-43
2022/06/08 13:06:17;;;;;;;20.02;17.92;;;17.20;99.90;;;;;;5041163;28;20098;-46
2022/06/08 13:08:43;;;;;;;19.98;18.13;;;17.30;99.90;;;;;;5041441;28;20049;-45
2022/06/08 13:11:17;;;;;;;19.13;17.23;;;17.40;99.90;;;;;;5041176;28;20055;-46
2022/06/08 13:13:43;;;;;;;20.48;18.65;;;17.40;99.90;;;;;;5024050;28;20665;-47
2022/06/08 13:16:21;;;;;;;20.75;18.85;;;17.50;99.90;;;;;;5040723;28;20121;-44